createdAt,value
2023-04-24T00:01:13.341Z,12.80
2023-04-24T00:05:15.340Z,12.30
2023-04-24T00:09:16.433Z,12.40
2023-04-24T00:13:17.476Z,12.80
2023-04-24T00:17:21.969Z,12.80
2023-04-24T00:21:24.925Z,12.60
2023-04-24T00:25:25.923Z,12.50
2023-04-24T00:29:27.043Z,12.90
2023-04-24T00:33:29.020Z,12.80
2023-04-24T00:37:29.872Z,12.70
2023-04-24T00:41:31.091Z,11.70
2023-04-24T00:45:32.347Z,12.40
2023-04-24T00:49:33.336Z,12.40
2023-04-24T00:53:34.401Z,12.90
2023-04-24T00:57:36.004Z,11.80
2023-04-24T01:01:37.379Z,11.70
2023-04-24T01:05:38.522Z,11.80
2023-04-24T01:09:42.226Z,11.70
2023-04-24T01:13:43.562Z,11.70
2023-04-24T01:17:45.531Z,11.70
2023-04-24T01:21:48.409Z,11.90
2023-04-24T01:25:50.633Z,11.40
2023-04-24T01:29:52.388Z,11.90
2023-04-24T01:33:55.061Z,11.70
2023-04-24T01:37:56.201Z,11.50
2023-04-24T01:41:57.480Z,12.30
2023-04-24T01:45:58.589Z,12.10
2023-04-24T01:49:59.896Z,12.10
2023-04-24T01:54:00.962Z,12.10
2023-04-24T01:58:02.633Z,11.40
2023-04-24T02:02:04.186Z,11.80
2023-04-24T02:06:05.624Z,12.00
2023-04-24T02:10:07.520Z,12.00
2023-04-24T02:14:08.857Z,11.60
2023-04-24T02:18:10.484Z,11.50
2023-04-24T02:22:11.633Z,11.20
2023-04-24T02:26:12.798Z,11.50
2023-04-24T02:30:14.403Z,11.60
2023-04-24T02:34:16.895Z,12.30
2023-04-24T02:38:18.006Z,12.70
2023-04-24T02:42:19.116Z,13.20
2023-04-24T02:46:20.374Z,13.20
2023-04-24T02:50:21.390Z,13.10
2023-04-24T02:54:22.522Z,12.50
2023-04-24T02:58:23.502Z,12.50
2023-04-24T03:02:24.990Z,11.50
2023-04-24T03:06:27.358Z,11.70
2023-04-24T03:10:28.335Z,12.30
2023-04-24T03:14:33.846Z,12.20
2023-04-24T03:18:35.059Z,11.60
2023-04-24T03:22:36.342Z,11.30
2023-04-24T03:26:37.719Z,12.30
2023-04-24T03:30:38.720Z,12.00
2023-04-24T03:34:39.844Z,12.10
2023-04-24T03:38:41.008Z,11.80
2023-04-24T03:42:42.170Z,11.70
2023-04-24T03:46:43.244Z,12.20
2023-04-24T03:50:45.018Z,11.50
2023-04-24T03:54:46.160Z,11.30
2023-04-24T03:58:47.379Z,11.10
2023-04-24T04:02:48.615Z,11.20
2023-04-24T04:06:49.865Z,11.50
2023-04-24T04:10:50.881Z,10.80
2023-04-24T04:14:51.881Z,10.80
2023-04-24T04:18:53.048Z,9.80
2023-04-24T04:22:54.210Z,10.30
2023-04-24T04:26:57.139Z,11.10
2023-04-24T04:30:58.476Z,11.20
2023-04-24T04:35:02.535Z,11.10
2023-04-24T04:39:04.267Z,10.80
2023-04-24T04:43:05.882Z,9.80
2023-04-24T04:47:09.224Z,11.20
2023-04-24T04:51:10.562Z,10.80
2023-04-24T04:55:13.662Z,9.70
2023-04-24T04:59:14.700Z,10.90
2023-04-24T05:07:18.778Z,10.30
2023-04-24T05:11:19.778Z,10.80
2023-04-24T05:15:20.863Z,10.30
2023-04-24T05:19:21.975Z,10.00
2023-04-24T05:23:22.962Z,10.50
2023-04-24T05:27:25.314Z,10.50
2023-04-24T05:31:26.512Z,11.20
2023-04-24T05:35:27.792Z,11.10
2023-04-24T05:39:28.758Z,12.00
2023-04-24T05:43:29.964Z,10.70
2023-04-24T05:47:31.132Z,11.30
2023-04-24T05:51:32.036Z,10.50
2023-04-24T05:55:33.132Z,10.50
2023-04-24T05:59:36.944Z,9.80
2023-04-24T06:03:39.858Z,10.90
2023-04-24T06:07:41.153Z,10.00
2023-04-24T06:11:42.904Z,10.30
2023-04-24T06:15:45.047Z,9.70
2023-04-24T06:19:46.225Z,9.80
2023-04-24T06:23:47.833Z,10.30
2023-04-24T06:27:48.767Z,10.80
2023-04-24T06:31:50.435Z,10.80
2023-04-24T06:35:51.413Z,10.00
2023-04-24T06:39:52.465Z,10.60
2023-04-24T06:43:53.613Z,10.90
2023-04-24T06:47:54.724Z,10.30
2023-04-24T06:51:56.077Z,11.00
2023-04-24T06:55:57.180Z,10.70
2023-04-24T06:59:58.249Z,10.90
2023-04-24T07:04:00.992Z,11.40
2023-04-24T07:08:03.479Z,11.50
2023-04-24T07:12:04.707Z,11.20
2023-04-24T07:16:06.320Z,11.60
2023-04-24T07:20:09.859Z,11.50
2023-04-24T07:24:12.088Z,11.20
2023-04-24T07:28:13.377Z,11.60
2023-04-24T07:32:14.988Z,11.10
2023-04-24T07:36:17.364Z,11.60
2023-04-24T07:40:19.265Z,11.70
2023-04-24T07:44:20.309Z,11.80
2023-04-24T07:48:22.423Z,11.50
2023-04-24T07:52:24.154Z,12.20
2023-04-24T07:56:27.965Z,12.50
2023-04-24T08:00:29.126Z,12.20
2023-04-24T08:04:30.359Z,13.20
2023-04-24T08:08:31.519Z,13.30
2023-04-24T08:12:32.493Z,12.80
2023-04-24T08:16:34.253Z,11.80
2023-04-24T08:20:35.616Z,12.40
2023-04-24T08:24:37.329Z,12.00
2023-04-24T08:28:38.833Z,12.20
2023-04-24T08:32:39.871Z,11.70
2023-04-24T08:36:46.983Z,11.90
2023-04-24T08:40:46.301Z,11.90
2023-04-24T08:44:50.127Z,11.80
2023-04-24T08:48:52.633Z,11.30
2023-04-24T08:52:53.964Z,11.60
2023-04-24T08:56:58.796Z,11.80
2023-04-24T09:01:01.005Z,12.00
2023-04-24T09:05:04.064Z,12.20
2023-04-24T09:09:05.821Z,12.00
2023-04-24T09:13:09.249Z,12.00
2023-04-24T09:17:10.368Z,11.70
2023-04-24T09:21:12.337Z,11.60
2023-04-24T09:25:13.830Z,12.50
2023-04-24T09:29:17.113Z,11.90
2023-04-24T09:33:18.495Z,11.80
2023-04-24T09:37:30.135Z,12.20
2023-04-24T09:41:32.962Z,12.20
2023-04-24T09:45:39.875Z,12.70
2023-04-24T09:49:43.077Z,11.60
2023-04-24T09:53:50.579Z,12.30
2023-04-24T09:57:57.491Z,12.30
2023-04-24T10:02:00.372Z,13.10
2023-04-24T10:06:04.186Z,12.80
2023-04-24T10:10:06.729Z,12.30
2023-04-24T10:14:11.383Z,11.60
2023-04-24T10:18:12.621Z,12.30
2023-04-24T10:22:16.298Z,13.00
2023-04-24T10:26:18.226Z,12.20
2023-04-24T10:30:20.314Z,11.90
2023-04-24T10:34:23.398Z,12.70
2023-04-24T10:38:28.394Z,12.90
2023-04-24T10:42:29.594Z,13.10
2023-04-24T10:46:30.928Z,13.50
2023-04-24T10:50:50.377Z,12.70
2023-04-24T10:54:51.520Z,12.30
2023-04-24T10:58:54.400Z,11.40
2023-04-24T11:02:55.781Z,10.50
2023-04-24T11:06:58.039Z,11.10
2023-04-24T11:11:01.935Z,10.60
2023-04-24T11:15:03.710Z,9.40
2023-04-24T11:19:18.130Z,11.80
2023-04-24T11:23:20.773Z,10.70
2023-04-24T11:27:23.126Z,10.20
2023-04-24T11:31:42.425Z,10.20
2023-04-24T11:35:43.681Z,10.60
2023-04-24T11:39:44.962Z,10.60
2023-04-24T11:43:46.645Z,10.30
2023-04-24T11:47:48.229Z,11.70
2023-04-24T11:51:53.535Z,13.10
2023-04-24T11:55:52.114Z,11.90
2023-04-24T11:59:53.352Z,12.30
2023-04-24T12:03:58.641Z,12.30
2023-04-24T12:08:00.146Z,11.20
2023-04-24T12:12:01.557Z,12.00
2023-04-24T12:16:04.934Z,12.20
2023-04-24T12:20:08.249Z,12.30
2023-04-24T12:24:09.397Z,13.50
2023-04-24T12:28:12.965Z,13.00
2023-04-24T12:32:17.631Z,13.20
2023-04-24T12:36:20.895Z,13.10
2023-04-24T12:40:24.635Z,10.60
2023-04-24T12:44:34.823Z,10.10
2023-04-24T12:48:36.045Z,10.20
2023-04-24T12:52:39.589Z,10.20
2023-04-24T12:56:40.683Z,10.80
2023-04-24T13:00:43.822Z,11.30
2023-04-24T13:04:47.074Z,11.90
2023-04-24T13:08:48.930Z,12.60
2023-04-24T13:12:50.193Z,11.80
2023-04-24T13:16:51.912Z,12.50
2023-04-24T13:20:53.182Z,13.20
2023-04-24T13:24:55.448Z,13.60
2023-04-24T13:28:56.618Z,13.30
2023-04-24T13:32:57.648Z,12.90
2023-04-24T13:36:59.092Z,11.30
2023-04-24T13:41:00.920Z,11.30
2023-04-24T13:45:06.015Z,12.00
2023-04-24T13:49:05.090Z,12.10
2023-04-24T13:53:06.427Z,12.60
2023-04-24T13:57:07.709Z,11.50
2023-04-24T14:01:08.935Z,11.30
2023-04-24T14:05:11.485Z,12.00
2023-04-24T14:09:13.184Z,13.90
2023-04-24T14:13:14.889Z,14.70
2023-04-24T14:17:15.842Z,14.80
2023-04-24T14:21:17.042Z,14.30
2023-04-24T14:25:18.067Z,13.40
2023-04-24T14:29:19.861Z,12.70
2023-04-24T14:33:21.414Z,12.70
2023-04-24T14:37:22.475Z,11.80
2023-04-24T14:41:23.566Z,11.90
2023-04-24T14:45:25.468Z,11.10
2023-04-24T14:49:26.609Z,11.00
2023-04-24T14:53:28.618Z,11.50
2023-04-24T14:57:29.908Z,11.60
2023-04-24T15:01:31.039Z,13.00
2023-04-24T15:05:32.399Z,14.90
2023-04-24T15:09:33.910Z,14.30
2023-04-24T15:13:35.097Z,14.80
2023-04-24T15:17:36.590Z,13.00
2023-04-24T15:21:38.181Z,13.80
2023-04-24T15:25:39.462Z,14.30
2023-04-24T15:29:40.714Z,14.00
2023-04-24T15:33:41.799Z,13.30
2023-04-24T15:37:42.907Z,13.50
2023-04-24T15:41:43.840Z,13.10
2023-04-24T15:45:45.007Z,13.40
2023-04-24T15:49:46.162Z,13.20
2023-04-24T15:53:47.712Z,13.30
2023-04-24T15:57:49.339Z,13.60
2023-04-24T16:01:50.417Z,13.20
2023-04-24T16:05:53.380Z,12.10
2023-04-24T16:09:54.346Z,12.80
2023-04-24T16:13:55.446Z,13.70
2023-04-24T16:17:56.976Z,14.10
2023-04-24T16:21:58.444Z,13.30
2023-04-24T16:25:59.427Z,14.80
2023-04-24T16:30:00.673Z,14.50
2023-04-24T16:34:03.544Z,14.30
2023-04-24T16:38:04.858Z,14.80
2023-04-24T16:42:06.256Z,15.30
2023-04-24T16:46:07.628Z,15.10
2023-04-24T16:50:09.738Z,14.50
2023-04-24T16:54:10.883Z,11.30
2023-04-24T16:58:12.329Z,10.90
2023-04-24T17:02:13.617Z,11.60
2023-04-24T17:06:14.781Z,11.70
2023-04-24T17:10:16.299Z,12.60
2023-04-24T17:14:17.257Z,11.80
2023-04-24T17:18:18.589Z,12.00
2023-04-24T17:22:19.827Z,12.30
2023-04-24T17:26:20.934Z,11.40
2023-04-24T17:34:38.127Z,12.60
2023-04-24T17:38:39.222Z,12.70
2023-04-24T17:42:41.812Z,12.20
2023-04-24T17:46:43.020Z,12.70
2023-04-24T17:50:45.361Z,13.20
2023-04-24T17:54:46.346Z,13.20
2023-04-24T17:58:49.694Z,13.20
2023-04-24T18:02:53.056Z,12.80
2023-04-24T18:06:54.200Z,12.70
2023-04-24T18:10:55.288Z,13.10
2023-04-24T18:15:06.617Z,13.00
2023-04-24T18:18:59.528Z,12.10
2023-04-24T18:23:02.238Z,13.10
2023-04-24T18:27:03.620Z,13.40
2023-04-24T18:31:06.798Z,13.60
2023-04-24T18:35:08.362Z,13.60
2023-04-24T18:39:09.556Z,13.60
2023-04-24T18:43:10.707Z,13.60
2023-04-24T18:47:11.909Z,13.80
2023-04-24T18:51:13.016Z,13.80
2023-04-24T18:55:14.209Z,13.80
2023-04-24T18:59:15.146Z,13.60
2023-04-24T19:03:16.296Z,12.90
2023-04-24T19:07:19.032Z,12.30
2023-04-24T19:11:20.597Z,11.30
2023-04-24T19:15:23.568Z,10.30
2023-04-24T19:19:25.482Z,9.60
2023-04-24T19:23:26.846Z,9.60
2023-04-24T19:27:27.846Z,10.20
2023-04-24T19:31:29.165Z,11.10
2023-04-24T19:35:30.451Z,11.30
2023-04-24T19:39:31.873Z,11.40
2023-04-24T19:43:32.960Z,11.40
2023-04-24T19:47:33.932Z,11.50
2023-04-24T19:51:35.482Z,11.10
2023-04-24T19:55:37.105Z,11.00
2023-04-24T19:59:38.222Z,11.50
2023-04-24T20:03:39.365Z,11.40
2023-04-24T20:07:40.697Z,11.40
2023-04-24T20:11:43.118Z,11.30
2023-04-24T20:15:44.411Z,11.40
2023-04-24T20:19:45.980Z,11.40
2023-04-24T20:23:47.121Z,11.70
2023-04-24T20:27:48.224Z,11.90
2023-04-24T20:31:50.285Z,12.50
2023-04-24T20:35:51.854Z,12.50
2023-04-24T20:39:53.029Z,11.90
2023-04-24T20:43:53.991Z,12.10
2023-04-24T20:47:55.149Z,11.60
2023-04-24T20:51:58.024Z,12.30
2023-04-24T20:55:58.985Z,12.20
2023-04-24T21:00:00.204Z,12.50
2023-04-24T21:04:01.403Z,12.00
2023-04-24T21:08:02.420Z,12.00
2023-04-24T21:12:03.987Z,12.30
2023-04-24T21:16:05.683Z,12.10
2023-04-24T21:20:08.261Z,11.80
2023-04-24T21:24:09.388Z,11.50
2023-04-24T21:28:10.600Z,12.00
2023-04-24T21:32:11.867Z,11.90
2023-04-24T21:36:12.852Z,12.30
2023-04-24T21:40:15.225Z,12.10
2023-04-24T21:44:16.174Z,12.00
2023-04-24T21:48:17.286Z,12.10
2023-04-24T21:52:18.248Z,11.90
2023-04-24T21:56:19.449Z,11.90
2023-04-24T22:00:20.953Z,11.50
2023-04-24T22:04:22.033Z,10.70
2023-04-24T22:08:24.641Z,11.40
2023-04-24T22:12:25.669Z,11.40
2023-04-24T22:16:29.021Z,11.40
2023-04-24T22:20:30.193Z,11.60
2023-04-24T22:24:31.292Z,11.20
2023-04-24T22:28:32.266Z,11.60
2023-04-24T22:32:33.985Z,11.80
2023-04-24T22:36:35.449Z,11.10
2023-04-24T22:40:36.394Z,11.60
2023-04-24T22:44:37.396Z,10.70
2023-04-24T22:48:39.267Z,9.90
2023-04-24T22:52:41.147Z,10.20
2023-04-24T22:56:42.412Z,10.50
2023-04-24T23:00:43.902Z,10.60
2023-04-24T23:04:45.097Z,10.70
2023-04-24T23:08:46.321Z,11.10
2023-04-24T23:12:47.643Z,10.60
2023-04-24T23:16:48.659Z,10.60
2023-04-24T23:20:49.958Z,11.40
2023-04-24T23:24:51.382Z,11.10
2023-04-24T23:28:52.806Z,11.30
2023-04-24T23:32:53.865Z,11.40
2023-04-24T23:36:55.263Z,11.60
2023-04-24T23:40:56.365Z,11.00
2023-04-24T23:44:57.340Z,10.50
2023-04-24T23:48:58.500Z,10.30
2023-04-24T23:52:59.965Z,11.10
2023-04-24T23:57:01.837Z,11.30
